Terminal Aerodrome Forecast
Issued by NWS Portland, ME

Home | Current Version | Previous Version | Text Only | Print | Product List | Glossary On
Versions: 1 2 3 4 5 6 7 8 9 10 11 12 13 14 15 16 17 18 19 20 21 22
000
FTUS41 KGYX 230520
TAFPWM
TAF
KPWM 230520Z 2306/2406 16005KT 5SM BR OVC003
     FM231000 VRB03KT 1/2SM FG BKN003
     FM231200 VRB03KT 2SM BR BKN003
     FM231300 36004KT P6SM SCT130
     FM231800 19007KT P6SM SCT250=

USA.gov is the U.S. government's official web portal to all federal, state and local government web resources and services.